sensor_id;sensor_type;location;lat;lon;timestamp;P1;durP1;ratioP1;P2;durP2;ratioP2
66139;SDS011;52945;51.908;8.364;2023-02-28T00:01:18;4.28;;;2.05;;
66139;SDS011;52945;51.908;8.364;2023-02-28T00:04:19;3.22;;;1.98;;
66139;SDS011;52945;51.908;8.364;2023-02-28T00:07:19;2.10;;;1.95;;
66139;SDS011;52945;51.908;8.364;2023-02-28T00:10:24;3.85;;;2.33;;
66139;SDS011;52945;51.908;8.364;2023-02-28T00:13:26;3.35;;;2.42;;
66139;SDS011;52945;51.908;8.364;2023-02-28T00:16:27;4.88;;;2.63;;
66139;SDS011;52945;51.908;8.364;2023-02-28T00:19:28;3.72;;;2.10;;
66139;SDS011;52945;51.908;8.364;2023-02-28T00:22:28;3.97;;;2.45;;
66139;SDS011;52945;51.908;8.364;2023-02-28T00:25:29;4.05;;;2.53;;
66139;SDS011;52945;51.908;8.364;2023-02-28T00:28:29;6.70;;;2.25;;
66139;SDS011;52945;51.908;8.364;2023-02-28T00:31:30;5.35;;;2.55;;
66139;SDS011;52945;51.908;8.364;2023-02-28T00:34:31;5.68;;;2.35;;
66139;SDS011;52945;51.908;8.364;2023-02-28T00:37:37;5.32;;;2.08;;
66139;SDS011;52945;51.908;8.364;2023-02-28T00:40:38;8.27;;;2.92;;
66139;SDS011;52945;51.908;8.364;2023-02-28T00:43:39;3.95;;;2.05;;
66139;SDS011;52945;51.908;8.364;2023-02-28T00:46:40;2.92;;;2.20;;
66139;SDS011;52945;51.908;8.364;2023-02-28T00:49:40;5.43;;;2.80;;
66139;SDS011;52945;51.908;8.364;2023-02-28T00:52:41;5.65;;;2.42;;
66139;SDS011;52945;51.908;8.364;2023-02-28T00:55:41;4.25;;;1.77;;
66139;SDS011;52945;51.908;8.364;2023-02-28T00:58:42;3.53;;;2.22;;
66139;SDS011;52945;51.908;8.364;2023-02-28T01:01:43;6.25;;;2.30;;
66139;SDS011;52945;51.908;8.364;2023-02-28T01:04:45;3.50;;;2.25;;
66139;SDS011;52945;51.908;8.364;2023-02-28T01:07:46;2.70;;;1.85;;
66139;SDS011;52945;51.908;8.364;2023-02-28T01:10:46;4.57;;;2.25;;
66139;SDS011;52945;51.908;8.364;2023-02-28T01:13:47;2.90;;;1.77;;
66139;SDS011;52945;51.908;8.364;2023-02-28T01:16:48;3.92;;;1.60;;
66139;SDS011;52945;51.908;8.364;2023-02-28T01:19:49;3.53;;;1.80;;
66139;SDS011;52945;51.908;8.364;2023-02-28T01:22:49;5.90;;;1.92;;
66139;SDS011;52945;51.908;8.364;2023-02-28T01:25:50;3.17;;;1.73;;
66139;SDS011;52945;51.908;8.364;2023-02-28T01:28:51;2.55;;;1.90;;
66139;SDS011;52945;51.908;8.364;2023-02-28T01:31:53;3.20;;;1.95;;
66139;SDS011;52945;51.908;8.364;2023-02-28T01:34:53;4.70;;;2.03;;
66139;SDS011;52945;51.908;8.364;2023-02-28T01:37:54;3.80;;;2.30;;
66139;SDS011;52945;51.908;8.364;2023-02-28T01:40:55;3.22;;;1.80;;
66139;SDS011;52945;51.908;8.364;2023-02-28T01:47:03;2.88;;;1.88;;
66139;SDS011;52945;51.908;8.364;2023-02-28T01:50:04;6.00;;;1.88;;
66139;SDS011;52945;51.908;8.364;2023-02-28T01:53:09;3.47;;;1.63;;
66139;SDS011;52945;51.908;8.364;2023-02-28T01:56:13;2.60;;;1.27;;
66139;SDS011;52945;51.908;8.364;2023-02-28T01:59:30;2.97;;;1.83;;
66139;SDS011;52945;51.908;8.364;2023-02-28T02:02:35;3.15;;;2.28;;
66139;SDS011;52945;51.908;8.364;2023-02-28T02:05:38;2.75;;;1.73;;
66139;SDS011;52945;51.908;8.364;2023-02-28T02:08:39;2.25;;;1.42;;
66139;SDS011;52945;51.908;8.364;2023-02-28T02:11:40;2.95;;;1.45;;
66139;SDS011;52945;51.908;8.364;2023-02-28T02:14:46;2.42;;;1.75;;
66139;SDS011;52945;51.908;8.364;2023-02-28T02:18:01;2.35;;;1.83;;
66139;SDS011;52945;51.908;8.364;2023-02-28T02:24:38;5.35;;;1.90;;
66139;SDS011;52945;51.908;8.364;2023-02-28T02:38:07;3.38;;;1.80;;
66139;SDS011;52945;51.908;8.364;2023-02-28T02:44:49;4.10;;;2.17;;
66139;SDS011;52945;51.908;8.364;2023-02-28T02:47:54;2.17;;;1.52;;
66139;SDS011;52945;51.908;8.364;2023-02-28T02:50:59;3.45;;;1.73;;
66139;SDS011;52945;51.908;8.364;2023-02-28T02:54:11;4.82;;;2.20;;
66139;SDS011;52945;51.908;8.364;2023-02-28T02:57:33;3.80;;;2.15;;
66139;SDS011;52945;51.908;8.364;2023-02-28T03:00:39;2.90;;;2.00;;
66139;SDS011;52945;51.908;8.364;2023-02-28T03:03:43;6.30;;;2.90;;
66139;SDS011;52945;51.908;8.364;2023-02-28T03:06:45;3.15;;;1.67;;
66139;SDS011;52945;51.908;8.364;2023-02-28T03:09:50;2.72;;;1.98;;
66139;SDS011;52945;51.908;8.364;2023-02-28T03:12:54;1.63;;;1.52;;
66139;SDS011;52945;51.908;8.364;2023-02-28T03:19:43;4.15;;;1.83;;
66139;SDS011;52945;51.908;8.364;2023-02-28T03:23:23;2.15;;;1.88;;
66139;SDS011;52945;51.908;8.364;2023-02-28T03:26:36;4.60;;;2.50;;
66139;SDS011;52945;51.908;8.364;2023-02-28T03:30:10;3.35;;;1.67;;
66139;SDS011;52945;51.908;8.364;2023-02-28T03:33:30;3.20;;;2.22;;
66139;SDS011;52945;51.908;8.364;2023-02-28T03:36:37;6.72;;;3.03;;
66139;SDS011;52945;51.908;8.364;2023-02-28T03:39:44;4.00;;;1.98;;
66139;SDS011;52945;51.908;8.364;2023-02-28T03:42:55;2.25;;;1.55;;
66139;SDS011;52945;51.908;8.364;2023-02-28T03:46:01;4.22;;;1.92;;
66139;SDS011;52945;51.908;8.364;2023-02-28T03:49:11;3.83;;;2.17;;
66139;SDS011;52945;51.908;8.364;2023-02-28T03:55:18;3.17;;;2.22;;
66139;SDS011;52945;51.908;8.364;2023-02-28T03:58:37;4.30;;;2.22;;
66139;SDS011;52945;51.908;8.364;2023-02-28T04:01:44;2.88;;;1.75;;
66139;SDS011;52945;51.908;8.364;2023-02-28T04:04:47;2.80;;;1.60;;
66139;SDS011;52945;51.908;8.364;2023-02-28T04:07:48;2.90;;;2.63;;
66139;SDS011;52945;51.908;8.364;2023-02-28T04:11:01;2.72;;;1.80;;
66139;SDS011;52945;51.908;8.364;2023-02-28T04:14:06;2.45;;;1.67;;
66139;SDS011;52945;51.908;8.364;2023-02-28T04:17:08;3.47;;;1.73;;
66139;SDS011;52945;51.908;8.364;2023-02-28T04:20:09;2.47;;;1.77;;
66139;SDS011;52945;51.908;8.364;2023-02-28T04:23:10;2.72;;;2.13;;
66139;SDS011;52945;51.908;8.364;2023-02-28T04:26:10;4.70;;;2.08;;
66139;SDS011;52945;51.908;8.364;2023-02-28T04:29:12;2.97;;;2.05;;
66139;SDS011;52945;51.908;8.364;2023-02-28T04:32:14;2.15;;;1.70;;
66139;SDS011;52945;51.908;8.364;2023-02-28T04:35:14;2.13;;;1.95;;
66139;SDS011;52945;51.908;8.364;2023-02-28T04:38:15;3.30;;;2.10;;
66139;SDS011;52945;51.908;8.364;2023-02-28T04:41:16;2.13;;;1.95;;
66139;SDS011;52945;51.908;8.364;2023-02-28T04:44:17;4.60;;;2.38;;
66139;SDS011;52945;51.908;8.364;2023-02-28T04:47:18;3.00;;;2.22;;
66139;SDS011;52945;51.908;8.364;2023-02-28T04:50:18;5.47;;;2.83;;
66139;SDS011;52945;51.908;8.364;2023-02-28T04:53:19;3.85;;;1.63;;
66139;SDS011;52945;51.908;8.364;2023-02-28T04:56:20;3.72;;;1.77;;
66139;SDS011;52945;51.908;8.364;2023-02-28T04:59:21;3.08;;;2.35;;
66139;SDS011;52945;51.908;8.364;2023-02-28T05:02:22;2.78;;;1.80;;
66139;SDS011;52945;51.908;8.364;2023-02-28T05:05:23;4.20;;;2.15;;
66139;SDS011;52945;51.908;8.364;2023-02-28T05:08:24;3.30;;;2.35;;
66139;SDS011;52945;51.908;8.364;2023-02-28T05:14:25;2.88;;;2.22;;
66139;SDS011;52945;51.908;8.364;2023-02-28T05:17:26;3.15;;;2.05;;
66139;SDS011;52945;51.908;8.364;2023-02-28T05:20:26;2.88;;;2.15;;
66139;SDS011;52945;51.908;8.364;2023-02-28T05:23:27;3.83;;;2.20;;
66139;SDS011;52945;51.908;8.364;2023-02-28T05:26:28;2.67;;;1.73;;
66139;SDS011;52945;51.908;8.364;2023-02-28T05:29:29;3.53;;;2.33;;
66139;SDS011;52945;51.908;8.364;2023-02-28T05:32:30;5.32;;;1.88;;
66139;SDS011;52945;51.908;8.364;2023-02-28T05:35:30;5.90;;;2.03;;
66139;SDS011;52945;51.908;8.364;2023-02-28T05:38:31;3.88;;;1.90;;
66139;SDS011;52945;51.908;8.364;2023-02-28T05:41:32;5.25;;;2.35;;
66139;SDS011;52945;51.908;8.364;2023-02-28T05:44:33;2.92;;;2.50;;
66139;SDS011;52945;51.908;8.364;2023-02-28T05:47:33;3.35;;;1.98;;
66139;SDS011;52945;51.908;8.364;2023-02-28T05:50:35;2.30;;;1.80;;
66139;SDS011;52945;51.908;8.364;2023-02-28T05:53:36;3.90;;;1.83;;
66139;SDS011;52945;51.908;8.364;2023-02-28T05:56:36;4.53;;;2.20;;
66139;SDS011;52945;51.908;8.364;2023-02-28T05:59:39;2.33;;;1.77;;
66139;SDS011;52945;51.908;8.364;2023-02-28T06:02:40;2.88;;;2.38;;
66139;SDS011;52945;51.908;8.364;2023-02-28T06:05:41;6.78;;;3.00;;
66139;SDS011;52945;51.908;8.364;2023-02-28T06:08:41;4.18;;;2.15;;
66139;SDS011;52945;51.908;8.364;2023-02-28T06:11:43;2.92;;;2.20;;
66139;SDS011;52945;51.908;8.364;2023-02-28T06:14:44;3.38;;;2.05;;
66139;SDS011;52945;51.908;8.364;2023-02-28T06:17:44;4.15;;;2.13;;
66139;SDS011;52945;51.908;8.364;2023-02-28T06:20:51;2.83;;;1.92;;
66139;SDS011;52945;51.908;8.364;2023-02-28T06:23:56;3.85;;;2.20;;
66139;SDS011;52945;51.908;8.364;2023-02-28T06:26:57;2.83;;;1.85;;
66139;SDS011;52945;51.908;8.364;2023-02-28T06:30:04;6.25;;;2.25;;
66139;SDS011;52945;51.908;8.364;2023-02-28T06:33:05;4.15;;;2.15;;
66139;SDS011;52945;51.908;8.364;2023-02-28T06:36:06;3.13;;;2.35;;
66139;SDS011;52945;51.908;8.364;2023-02-28T06:39:07;2.58;;;1.83;;
66139;SDS011;52945;51.908;8.364;2023-02-28T06:42:09;4.55;;;2.03;;
66139;SDS011;52945;51.908;8.364;2023-02-28T06:45:10;5.85;;;3.10;;
66139;SDS011;52945;51.908;8.364;2023-02-28T06:48:11;3.25;;;2.13;;
66139;SDS011;52945;51.908;8.364;2023-02-28T06:51:17;6.72;;;2.35;;
66139;SDS011;52945;51.908;8.364;2023-02-28T06:54:20;3.28;;;2.38;;
66139;SDS011;52945;51.908;8.364;2023-02-28T06:57:20;6.55;;;3.47;;
66139;SDS011;52945;51.908;8.364;2023-02-28T07:00:21;3.03;;;2.00;;
66139;SDS011;52945;51.908;8.364;2023-02-28T07:03:22;4.43;;;2.78;;
66139;SDS011;52945;51.908;8.364;2023-02-28T07:06:23;4.40;;;2.90;;
66139;SDS011;52945;51.908;8.364;2023-02-28T07:09:24;3.25;;;2.30;;
66139;SDS011;52945;51.908;8.364;2023-02-28T07:12:29;4.50;;;2.97;;
66139;SDS011;52945;51.908;8.364;2023-02-28T07:15:30;6.00;;;2.97;;
66139;SDS011;52945;51.908;8.364;2023-02-28T07:18:31;3.28;;;2.42;;
66139;SDS011;52945;51.908;8.364;2023-02-28T07:21:31;3.55;;;2.35;;
66139;SDS011;52945;51.908;8.364;2023-02-28T07:24:32;3.05;;;2.10;;
66139;SDS011;52945;51.908;8.364;2023-02-28T07:27:33;3.53;;;1.55;;
66139;SDS011;52945;51.908;8.364;2023-02-28T07:30:34;3.47;;;2.10;;
66139;SDS011;52945;51.908;8.364;2023-02-28T07:33:34;7.55;;;2.20;;
66139;SDS011;52945;51.908;8.364;2023-02-28T07:36:35;3.38;;;2.53;;
66139;SDS011;52945;51.908;8.364;2023-02-28T07:39:36;2.13;;;1.90;;
66139;SDS011;52945;51.908;8.364;2023-02-28T07:42:37;3.58;;;2.72;;
66139;SDS011;52945;51.908;8.364;2023-02-28T07:45:38;3.35;;;2.30;;
66139;SDS011;52945;51.908;8.364;2023-02-28T07:48:39;2.95;;;1.67;;
66139;SDS011;52945;51.908;8.364;2023-02-28T07:51:39;4.40;;;2.28;;
66139;SDS011;52945;51.908;8.364;2023-02-28T07:54:40;3.75;;;2.78;;
66139;SDS011;52945;51.908;8.364;2023-02-28T07:57:40;2.08;;;1.88;;
66139;SDS011;52945;51.908;8.364;2023-02-28T08:00:41;3.75;;;2.13;;
66139;SDS011;52945;51.908;8.364;2023-02-28T08:03:41;2.90;;;2.15;;
66139;SDS011;52945;51.908;8.364;2023-02-28T08:06:42;5.88;;;2.60;;
66139;SDS011;52945;51.908;8.364;2023-02-28T08:09:43;3.78;;;1.77;;
66139;SDS011;52945;51.908;8.364;2023-02-28T08:12:44;2.17;;;1.65;;
66139;SDS011;52945;51.908;8.364;2023-02-28T08:15:45;3.38;;;1.90;;
66139;SDS011;52945;51.908;8.364;2023-02-28T08:18:48;2.63;;;2.40;;
66139;SDS011;52945;51.908;8.364;2023-02-28T08:21:50;2.92;;;1.83;;
66139;SDS011;52945;51.908;8.364;2023-02-28T08:24:50;2.67;;;1.85;;
66139;SDS011;52945;51.908;8.364;2023-02-28T08:27:51;2.15;;;1.45;;
66139;SDS011;52945;51.908;8.364;2023-02-28T08:30:52;3.13;;;1.88;;
66139;SDS011;52945;51.908;8.364;2023-02-28T08:33:53;6.13;;;2.00;;
66139;SDS011;52945;51.908;8.364;2023-02-28T08:36:57;4.45;;;2.08;;
66139;SDS011;52945;51.908;8.364;2023-02-28T08:39:57;2.55;;;2.25;;
66139;SDS011;52945;51.908;8.364;2023-02-28T08:42:58;2.63;;;1.63;;
66139;SDS011;52945;51.908;8.364;2023-02-28T08:45:59;5.03;;;2.10;;
66139;SDS011;52945;51.908;8.364;2023-02-28T08:49:00;6.60;;;2.42;;
66139;SDS011;52945;51.908;8.364;2023-02-28T08:52:01;3.20;;;1.80;;
66139;SDS011;52945;51.908;8.364;2023-02-28T08:55:02;5.93;;;2.22;;
66139;SDS011;52945;51.908;8.364;2023-02-28T08:58:03;3.65;;;1.95;;
66139;SDS011;52945;51.908;8.364;2023-02-28T09:01:07;2.47;;;1.67;;
66139;SDS011;52945;51.908;8.364;2023-02-28T09:04:09;1.58;;;1.15;;
66139;SDS011;52945;51.908;8.364;2023-02-28T09:07:11;2.92;;;1.58;;
66139;SDS011;52945;51.908;8.364;2023-02-28T09:10:12;5.22;;;1.83;;
66139;SDS011;52945;51.908;8.364;2023-02-28T09:13:13;7.72;;;3.20;;
66139;SDS011;52945;51.908;8.364;2023-02-28T09:16:14;10.85;;;3.15;;
66139;SDS011;52945;51.908;8.364;2023-02-28T09:19:16;6.22;;;2.03;;
66139;SDS011;52945;51.908;8.364;2023-02-28T09:22:16;1.92;;;1.40;;
66139;SDS011;52945;51.908;8.364;2023-02-28T09:25:17;4.03;;;1.75;;
66139;SDS011;52945;51.908;8.364;2023-02-28T09:28:17;6.35;;;2.58;;
66139;SDS011;52945;51.908;8.364;2023-02-28T09:31:20;2.65;;;1.30;;
66139;SDS011;52945;51.908;8.364;2023-02-28T09:34:24;2.40;;;1.35;;
66139;SDS011;52945;51.908;8.364;2023-02-28T09:40:30;1.60;;;1.02;;
66139;SDS011;52945;51.908;8.364;2023-02-28T09:43:33;2.88;;;1.27;;
66139;SDS011;52945;51.908;8.364;2023-02-28T09:46:38;1.67;;;1.30;;
66139;SDS011;52945;51.908;8.364;2023-02-28T09:49:44;2.55;;;1.40;;
66139;SDS011;52945;51.908;8.364;2023-02-28T09:52:47;1.73;;;1.30;;
66139;SDS011;52945;51.908;8.364;2023-02-28T09:55:57;2.95;;;1.95;;
66139;SDS011;52945;51.908;8.364;2023-02-28T09:59:01;0.93;;;0.90;;
66139;SDS011;52945;51.908;8.364;2023-02-28T10:08:52;1.75;;;1.00;;
66139;SDS011;52945;51.908;8.364;2023-02-28T10:12:01;1.40;;;1.10;;
66139;SDS011;52945;51.908;8.364;2023-02-28T10:15:05;2.05;;;1.40;;
66139;SDS011;52945;51.908;8.364;2023-02-28T10:18:10;3.80;;;1.27;;
66139;SDS011;52945;51.908;8.364;2023-02-28T10:21:59;2.42;;;1.45;;
66139;SDS011;52945;51.908;8.364;2023-02-28T10:24:55;2.60;;;1.77;;
66139;SDS011;52945;51.908;8.364;2023-02-28T10:28:10;2.63;;;1.52;;
66139;SDS011;52945;51.908;8.364;2023-02-28T10:31:14;2.10;;;1.33;;
66139;SDS011;52945;51.908;8.364;2023-02-28T10:34:18;3.15;;;1.65;;
66139;SDS011;52945;51.908;8.364;2023-02-28T10:37:18;4.88;;;2.40;;
66139;SDS011;52945;51.908;8.364;2023-02-28T10:43:21;2.78;;;1.77;;
66139;SDS011;52945;51.908;8.364;2023-02-28T10:46:22;3.47;;;1.92;;
66139;SDS011;52945;51.908;8.364;2023-02-28T10:49:26;7.03;;;3.20;;
66139;SDS011;52945;51.908;8.364;2023-02-28T10:52:36;3.53;;;1.95;;
66139;SDS011;52945;51.908;8.364;2023-02-28T10:55:39;2.30;;;1.33;;
66139;SDS011;52945;51.908;8.364;2023-02-28T11:01:59;1.77;;;1.33;;
66139;SDS011;52945;51.908;8.364;2023-02-28T11:04:59;1.90;;;1.30;;
66139;SDS011;52945;51.908;8.364;2023-02-28T11:08:13;2.88;;;1.27;;
66139;SDS011;52945;51.908;8.364;2023-02-28T11:11:16;3.10;;;2.03;;
66139;SDS011;52945;51.908;8.364;2023-02-28T11:14:19;1.80;;;1.50;;
66139;SDS011;52945;51.908;8.364;2023-02-28T11:21:25;2.90;;;1.58;;
66139;SDS011;52945;51.908;8.364;2023-02-28T11:24:47;2.33;;;1.50;;
66139;SDS011;52945;51.908;8.364;2023-02-28T11:27:52;1.45;;;1.20;;
66139;SDS011;52945;51.908;8.364;2023-02-28T11:34:24;1.67;;;1.58;;
66139;SDS011;52945;51.908;8.364;2023-02-28T11:37:26;1.23;;;1.02;;
66139;SDS011;52945;51.908;8.364;2023-02-28T11:40:34;1.35;;;1.23;;
66139;SDS011;52945;51.908;8.364;2023-02-28T11:47:24;3.15;;;1.50;;
66139;SDS011;52945;51.908;8.364;2023-02-28T11:50:46;1.40;;;1.20;;
66139;SDS011;52945;51.908;8.364;2023-02-28T12:07:13;3.67;;;1.45;;
66139;SDS011;52945;51.908;8.364;2023-02-28T12:10:39;1.95;;;1.48;;
66139;SDS011;52945;51.908;8.364;2023-02-28T12:14:05;1.75;;;1.30;;
66139;SDS011;52945;51.908;8.364;2023-02-28T12:17:16;4.60;;;1.40;;
66139;SDS011;52945;51.908;8.364;2023-02-28T12:20:27;4.28;;;1.80;;
66139;SDS011;52945;51.908;8.364;2023-02-28T12:27:24;1.85;;;1.40;;
66139;SDS011;52945;51.908;8.364;2023-02-28T12:30:33;3.70;;;1.58;;
66139;SDS011;52945;51.908;8.364;2023-02-28T12:33:39;2.05;;;1.48;;
66139;SDS011;52945;51.908;8.364;2023-02-28T12:36:43;4.55;;;1.48;;
66139;SDS011;52945;51.908;8.364;2023-02-28T12:39:49;10.25;;;3.72;;
66139;SDS011;52945;51.908;8.364;2023-02-28T12:43:12;5.63;;;2.15;;
66139;SDS011;52945;51.908;8.364;2023-02-28T12:46:19;5.20;;;2.08;;
66139;SDS011;52945;51.908;8.364;2023-02-28T12:49:29;3.92;;;2.05;;
66139;SDS011;52945;51.908;8.364;2023-02-28T12:59:27;1.45;;;1.30;;
66139;SDS011;52945;51.908;8.364;2023-02-28T13:09:24;3.30;;;1.60;;
66139;SDS011;52945;51.908;8.364;2023-02-28T13:12:18;2.72;;;1.58;;
66139;SDS011;52945;51.908;8.364;2023-02-28T13:15:26;3.25;;;2.08;;
66139;SDS011;52945;51.908;8.364;2023-02-28T13:19:07;3.47;;;1.30;;
66139;SDS011;52945;51.908;8.364;2023-02-28T13:22:51;4.50;;;1.70;;
66139;SDS011;52945;51.908;8.364;2023-02-28T13:38:12;1.42;;;1.10;;
66139;SDS011;52945;51.908;8.364;2023-02-28T13:44:36;2.60;;;1.15;;
66139;SDS011;52945;51.908;8.364;2023-02-28T13:48:16;2.70;;;1.45;;
66139;SDS011;52945;51.908;8.364;2023-02-28T13:51:27;2.45;;;1.15;;
66139;SDS011;52945;51.908;8.364;2023-02-28T14:05:00;7.40;;;3.10;;
66139;SDS011;52945;51.908;8.364;2023-02-28T14:11:28;7.40;;;3.58;;
66139;SDS011;52945;51.908;8.364;2023-02-28T14:17:38;5.47;;;2.60;;
66139;SDS011;52945;51.908;8.364;2023-02-28T14:20:38;6.68;;;2.33;;
66139;SDS011;52945;51.908;8.364;2023-02-28T14:23:46;4.22;;;2.05;;
66139;SDS011;52945;51.908;8.364;2023-02-28T14:30:43;2.95;;;1.60;;
66139;SDS011;52945;51.908;8.364;2023-02-28T14:37:26;2.88;;;1.33;;
66139;SDS011;52945;51.908;8.364;2023-02-28T14:40:33;2.95;;;1.65;;
66139;SDS011;52945;51.908;8.364;2023-02-28T14:43:47;1.85;;;1.30;;
66139;SDS011;52945;51.908;8.364;2023-02-28T14:46:59;2.75;;;1.70;;
66139;SDS011;52945;51.908;8.364;2023-02-28T14:50:17;4.55;;;2.38;;
66139;SDS011;52945;51.908;8.364;2023-02-28T14:53:38;4.90;;;1.92;;
66139;SDS011;52945;51.908;8.364;2023-02-28T14:56:38;2.70;;;1.88;;
66139;SDS011;52945;51.908;8.364;2023-02-28T14:59:40;4.28;;;1.70;;
66139;SDS011;52945;51.908;8.364;2023-02-28T15:02:41;3.17;;;1.77;;
66139;SDS011;52945;51.908;8.364;2023-02-28T15:05:42;2.35;;;1.40;;
66139;SDS011;52945;51.908;8.364;2023-02-28T15:09:10;2.70;;;1.75;;
66139;SDS011;52945;51.908;8.364;2023-02-28T15:12:14;4.15;;;1.70;;
66139;SDS011;52945;51.908;8.364;2023-02-28T15:15:15;3.55;;;1.55;;
66139;SDS011;52945;51.908;8.364;2023-02-28T15:21:39;2.47;;;1.58;;
66139;SDS011;52945;51.908;8.364;2023-02-28T15:24:47;3.13;;;1.88;;
66139;SDS011;52945;51.908;8.364;2023-02-28T15:27:51;3.40;;;2.03;;
66139;SDS011;52945;51.908;8.364;2023-02-28T15:30:55;4.13;;;1.98;;
66139;SDS011;52945;51.908;8.364;2023-02-28T15:34:04;6.70;;;2.72;;
66139;SDS011;52945;51.908;8.364;2023-02-28T15:37:23;3.78;;;1.92;;
66139;SDS011;52945;51.908;8.364;2023-02-28T15:40:45;4.63;;;1.73;;
66139;SDS011;52945;51.908;8.364;2023-02-28T15:47:32;4.13;;;2.00;;
66139;SDS011;52945;51.908;8.364;2023-02-28T15:50:33;2.25;;;1.70;;
66139;SDS011;52945;51.908;8.364;2023-02-28T15:53:39;1.65;;;1.55;;
66139;SDS011;52945;51.908;8.364;2023-02-28T15:56:49;5.30;;;2.00;;
66139;SDS011;52945;51.908;8.364;2023-02-28T16:00:00;2.85;;;1.90;;
66139;SDS011;52945;51.908;8.364;2023-02-28T16:03:23;2.83;;;2.00;;
66139;SDS011;52945;51.908;8.364;2023-02-28T16:09:44;6.28;;;2.35;;
66139;SDS011;52945;51.908;8.364;2023-02-28T16:12:44;3.08;;;1.80;;
66139;SDS011;52945;51.908;8.364;2023-02-28T16:15:45;3.33;;;1.67;;
66139;SDS011;52945;51.908;8.364;2023-02-28T16:18:46;2.40;;;1.80;;
66139;SDS011;52945;51.908;8.364;2023-02-28T16:21:46;4.90;;;2.08;;
66139;SDS011;52945;51.908;8.364;2023-02-28T16:24:47;2.70;;;1.70;;
66139;SDS011;52945;51.908;8.364;2023-02-28T16:27:48;3.38;;;2.22;;
66139;SDS011;52945;51.908;8.364;2023-02-28T16:30:51;4.32;;;2.00;;
66139;SDS011;52945;51.908;8.364;2023-02-28T16:36:53;5.65;;;2.42;;
66139;SDS011;52945;51.908;8.364;2023-02-28T16:39:53;3.75;;;2.03;;
66139;SDS011;52945;51.908;8.364;2023-02-28T16:42:55;3.53;;;2.00;;
66139;SDS011;52945;51.908;8.364;2023-02-28T16:45:58;3.92;;;1.77;;
66139;SDS011;52945;51.908;8.364;2023-02-28T16:49:01;2.00;;;1.55;;
66139;SDS011;52945;51.908;8.364;2023-02-28T16:52:02;5.35;;;2.17;;
66139;SDS011;52945;51.908;8.364;2023-02-28T16:55:02;3.97;;;2.35;;
66139;SDS011;52945;51.908;8.364;2023-02-28T16:58:03;3.17;;;1.88;;
66139;SDS011;52945;51.908;8.364;2023-02-28T17:01:04;5.43;;;2.38;;
66139;SDS011;52945;51.908;8.364;2023-02-28T17:04:05;4.93;;;2.13;;
66139;SDS011;52945;51.908;8.364;2023-02-28T17:07:08;4.03;;;1.95;;
66139;SDS011;52945;51.908;8.364;2023-02-28T17:10:16;3.72;;;2.03;;
66139;SDS011;52945;51.908;8.364;2023-02-28T17:13:22;2.90;;;2.20;;
66139;SDS011;52945;51.908;8.364;2023-02-28T17:16:25;4.50;;;2.40;;
66139;SDS011;52945;51.908;8.364;2023-02-28T17:19:28;5.85;;;2.70;;
66139;SDS011;52945;51.908;8.364;2023-02-28T17:22:29;4.97;;;2.40;;
66139;SDS011;52945;51.908;8.364;2023-02-28T17:25:29;4.95;;;2.40;;
66139;SDS011;52945;51.908;8.364;2023-02-28T17:28:31;4.70;;;2.03;;
66139;SDS011;52945;51.908;8.364;2023-02-28T17:31:31;4.57;;;2.00;;
66139;SDS011;52945;51.908;8.364;2023-02-28T17:34:38;3.80;;;2.28;;
66139;SDS011;52945;51.908;8.364;2023-02-28T17:37:39;4.28;;;2.20;;
66139;SDS011;52945;51.908;8.364;2023-02-28T17:40:39;4.95;;;2.45;;
66139;SDS011;52945;51.908;8.364;2023-02-28T17:43:40;4.50;;;2.47;;
66139;SDS011;52945;51.908;8.364;2023-02-28T17:46:41;4.85;;;2.17;;
66139;SDS011;52945;51.908;8.364;2023-02-28T17:49:43;4.07;;;2.35;;
66139;SDS011;52945;51.908;8.364;2023-02-28T17:52:44;3.08;;;2.08;;
66139;SDS011;52945;51.908;8.364;2023-02-28T17:55:44;3.38;;;2.40;;
66139;SDS011;52945;51.908;8.364;2023-02-28T17:58:45;3.55;;;2.05;;
66139;SDS011;52945;51.908;8.364;2023-02-28T18:01:46;3.55;;;2.55;;
66139;SDS011;52945;51.908;8.364;2023-02-28T18:04:46;6.20;;;2.55;;
66139;SDS011;52945;51.908;8.364;2023-02-28T18:07:47;6.18;;;3.53;;
66139;SDS011;52945;51.908;8.364;2023-02-28T18:10:47;6.00;;;3.88;;
66139;SDS011;52945;51.908;8.364;2023-02-28T18:13:51;5.68;;;2.90;;
66139;SDS011;52945;51.908;8.364;2023-02-28T18:16:53;4.35;;;2.65;;
66139;SDS011;52945;51.908;8.364;2023-02-28T18:19:55;3.33;;;2.67;;
66139;SDS011;52945;51.908;8.364;2023-02-28T18:22:55;6.32;;;2.90;;
66139;SDS011;52945;51.908;8.364;2023-02-28T18:25:56;6.55;;;2.95;;
66139;SDS011;52945;51.908;8.364;2023-02-28T18:28:57;7.60;;;2.88;;
66139;SDS011;52945;51.908;8.364;2023-02-28T18:31:58;5.18;;;3.28;;
66139;SDS011;52945;51.908;8.364;2023-02-28T18:35:01;4.95;;;2.75;;
66139;SDS011;52945;51.908;8.364;2023-02-28T18:41:03;5.15;;;2.72;;
66139;SDS011;52945;51.908;8.364;2023-02-28T18:44:04;3.97;;;2.75;;
66139;SDS011;52945;51.908;8.364;2023-02-28T18:47:06;3.90;;;2.75;;
66139;SDS011;52945;51.908;8.364;2023-02-28T18:50:07;4.93;;;2.38;;
66139;SDS011;52945;51.908;8.364;2023-02-28T18:53:08;4.80;;;2.63;;
66139;SDS011;52945;51.908;8.364;2023-02-28T18:56:10;4.72;;;2.72;;
66139;SDS011;52945;51.908;8.364;2023-02-28T18:59:16;4.65;;;2.50;;
66139;SDS011;52945;51.908;8.364;2023-02-28T19:02:17;4.45;;;2.53;;
66139;SDS011;52945;51.908;8.364;2023-02-28T19:05:18;5.28;;;2.67;;
66139;SDS011;52945;51.908;8.364;2023-02-28T19:08:19;6.18;;;2.90;;
66139;SDS011;52945;51.908;8.364;2023-02-28T19:11:20;6.55;;;2.90;;
66139;SDS011;52945;51.908;8.364;2023-02-28T19:14:21;5.20;;;2.65;;
66139;SDS011;52945;51.908;8.364;2023-02-28T19:17:21;6.25;;;3.25;;
66139;SDS011;52945;51.908;8.364;2023-02-28T19:20:22;6.47;;;2.97;;
66139;SDS011;52945;51.908;8.364;2023-02-28T19:23:23;7.00;;;3.33;;
66139;SDS011;52945;51.908;8.364;2023-02-28T19:26:24;7.65;;;3.17;;
66139;SDS011;52945;51.908;8.364;2023-02-28T19:32:26;6.50;;;3.08;;
66139;SDS011;52945;51.908;8.364;2023-02-28T19:35:27;7.05;;;3.63;;
66139;SDS011;52945;51.908;8.364;2023-02-28T19:38:27;6.72;;;3.58;;
66139;SDS011;52945;51.908;8.364;2023-02-28T19:41:28;9.23;;;3.50;;
66139;SDS011;52945;51.908;8.364;2023-02-28T19:44:28;10.07;;;3.78;;
66139;SDS011;52945;51.908;8.364;2023-02-28T19:47:29;7.03;;;3.38;;
66139;SDS011;52945;51.908;8.364;2023-02-28T19:50:30;9.52;;;3.42;;
66139;SDS011;52945;51.908;8.364;2023-02-28T19:53:31;8.88;;;4.13;;
66139;SDS011;52945;51.908;8.364;2023-02-28T19:56:33;10.05;;;4.50;;
66139;SDS011;52945;51.908;8.364;2023-02-28T19:59:33;7.38;;;3.97;;
66139;SDS011;52945;51.908;8.364;2023-02-28T20:02:34;8.63;;;4.65;;
66139;SDS011;52945;51.908;8.364;2023-02-28T20:05:35;12.30;;;4.22;;
66139;SDS011;52945;51.908;8.364;2023-02-28T20:08:36;6.80;;;3.28;;
66139;SDS011;52945;51.908;8.364;2023-02-28T20:11:37;8.70;;;3.10;;
66139;SDS011;52945;51.908;8.364;2023-02-28T20:14:38;6.60;;;3.40;;
66139;SDS011;52945;51.908;8.364;2023-02-28T20:17:38;5.30;;;3.25;;
66139;SDS011;52945;51.908;8.364;2023-02-28T20:20:41;5.05;;;3.35;;
66139;SDS011;52945;51.908;8.364;2023-02-28T20:23:42;7.70;;;3.50;;
66139;SDS011;52945;51.908;8.364;2023-02-28T20:26:47;9.10;;;3.53;;
66139;SDS011;52945;51.908;8.364;2023-02-28T20:29:48;4.93;;;2.95;;
66139;SDS011;52945;51.908;8.364;2023-02-28T20:32:48;8.90;;;3.45;;
66139;SDS011;52945;51.908;8.364;2023-02-28T20:35:49;3.92;;;2.85;;
66139;SDS011;52945;51.908;8.364;2023-02-28T20:38:56;7.30;;;3.30;;
66139;SDS011;52945;51.908;8.364;2023-02-28T20:41:57;7.30;;;3.47;;
66139;SDS011;52945;51.908;8.364;2023-02-28T20:44:57;4.93;;;3.10;;
66139;SDS011;52945;51.908;8.364;2023-02-28T20:47:58;5.18;;;2.92;;
66139;SDS011;52945;51.908;8.364;2023-02-28T20:50:59;5.30;;;3.35;;
66139;SDS011;52945;51.908;8.364;2023-02-28T20:53:59;5.15;;;3.00;;
66139;SDS011;52945;51.908;8.364;2023-02-28T20:57:00;5.40;;;3.22;;